Time;durP1;ratioP1;P1;durP2;ratioP2;P2;SDS_P1;SDS_P2;PMS_P1;PMS_P2;Temp;Humidity;BMP_temperature;BMP_pressure;BME280_temperature;BME280_humidity;BME280_pressure;Samples;Min_cycle;Max_cycle;Signal;HPM_P1;HPM_P2
2023/05/08 00:01:00;;;;;;;;;11.67;9.67;;;;;15.50;80.25;102069.00;5002098;28;9166;-67
2023/05/08 00:03:27;;;;;;;;;12.00;10.33;;;;;15.50;80.29;102071.72;4991388;28;9242;-66
2023/05/08 00:05:56;;;;;;;;;11.67;10.33;;;;;15.50;80.54;102072.56;5005411;28;9228;-67
2023/05/08 00:08:23;;;;;;;;;10.33;9.67;;;;;15.51;80.87;102067.97;5010596;28;9322;-66
2023/05/08 00:10:50;;;;;;;;;13.67;12.33;;;;;15.53;80.74;102074.06;4994790;28;9311;-67
2023/05/08 00:13:16;;;;;;;;;11.33;11.33;;;;;15.53;80.91;102065.91;4993225;28;9461;-68
2023/05/08 00:15:43;;;;;;;;;14.00;11.33;;;;;15.53;80.76;102065.91;4995562;28;9236;-66
2023/05/08 00:18:09;;;;;;;;;11.00;10.67;;;;;15.52;80.83;102053.38;4997018;28;9307;-67
2023/05/08 00:20:36;;;;;;;;;10.33;10.00;;;;;15.51;80.75;102052.53;4997956;28;9227;-66
2023/05/08 00:23:03;;;;;;;;;13.00;12.33;;;;;15.51;81.00;102070.69;4990528;28;9259;-67
2023/05/08 00:25:30;;;;;;;;;12.33;12.33;;;;;15.50;81.12;102064.44;5002400;28;9281;-66
2023/05/08 00:27:58;;;;;;;;;14.33;14.33;;;;;15.49;80.75;102056.50;5009703;28;9337;-67
2023/05/08 00:30:24;;;;;;;;;11.33;9.67;;;;;15.47;80.87;102061.25;4958301;28;9275;-66
2023/05/08 00:32:51;;;;;;;;;16.33;14.00;;;;;15.45;81.16;102049.78;4993037;28;9372;-66
2023/05/08 00:35:18;;;;;;;;;14.00;11.00;;;;;15.43;80.78;102060.81;4999687;28;10269;-66
2023/05/08 00:37:45;;;;;;;;;14.33;10.67;;;;;15.41;80.82;102056.63;4973857;28;9347;-67
2023/05/08 00:40:11;;;;;;;;;12.33;12.33;;;;;15.40;81.25;102068.53;4992246;28;9300;-66
2023/05/08 00:42:39;;;;;;;;;16.33;15.00;;;;;15.41;81.07;102067.50;4984231;28;9318;-67
2023/05/08 00:45:06;;;;;;;;;14.67;14.00;;;;;15.41;81.10;102067.50;4988338;28;9456;-67
2023/05/08 00:47:33;;;;;;;;;18.00;16.67;;;;;15.39;80.93;102054.09;4992260;28;9218;-67
2023/05/08 00:50:00;;;;;;;;;10.00;10.00;;;;;15.38;81.02;102065.16;4997924;28;9505;-67
2023/05/08 00:52:29;;;;;;;;;18.00;15.33;;;;;15.32;80.63;102059.50;4965620;28;9300;-67
2023/05/08 00:54:56;;;;;;;;;12.67;12.33;;;;;15.30;80.46;102063.41;4997966;28;9294;-67
2023/05/08 00:57:23;;;;;;;;;17.67;13.00;;;;;15.27;80.84;102061.97;4994505;28;9250;-68
2023/05/08 00:59:51;;;;;;;;;15.33;14.33;;;;;15.25;80.64;102061.31;4996570;28;9466;-67
2023/05/08 01:02:19;;;;;;;;;12.67;12.67;;;;;15.24;80.86;102053.38;4979633;28;9384;-67
2023/05/08 01:04:47;;;;;;;;;16.33;14.67;;;;;15.22;80.94;102053.53;4995994;28;9192;-66
2023/05/08 01:07:13;;;;;;;;;13.00;12.67;;;;;15.22;80.74;102056.25;5012258;28;10012;-68
2023/05/08 01:09:40;;;;;;;;;15.33;15.00;;;;;15.22;80.94;102066.28;5012686;28;9219;-67
2023/05/08 01:12:26;;;;;;;;;11.33;11.33;;;;;15.20;80.72;102062.94;4985929;28;9269;-68
2023/05/08 01:15:05;;;;;;;;;13.00;13.00;;;;;15.16;80.95;102061.63;4978240;28;9251;-67
2023/05/08 01:17:35;;;;;;;;;13.67;13.67;;;;;15.13;80.76;102054.72;4995853;28;9406;-69
2023/05/08 01:20:27;;;;;;;;;14.33;12.00;;;;;15.13;80.80;102062.03;5012421;28;9938;-68
2023/05/08 01:23:18;;;;;;;;;17.75;15.75;;;;;15.10;80.60;102065.94;5000898;28;9261;-68
2023/05/08 01:25:50;;;;;;;;;14.25;13.25;;;;;15.08;80.55;102065.31;5011619;28;10068;-67
2023/05/08 01:28:29;;;;;;;;;16.67;13.00;;;;;15.05;80.77;102054.84;4987956;28;9580;-68
2023/05/08 01:31:36;;;;;;;;;15.25;14.25;;;;;15.05;81.04;102063.00;4987879;28;9397;-69
2023/05/08 01:34:18;;;;;;;;;14.00;13.75;;;;;15.00;80.69;102060.88;4943662;28;9408;-68
2023/05/08 01:36:57;;;;;;;;;18.50;16.00;;;;;14.99;80.75;102061.03;4983117;28;9593;-68
2023/05/08 01:39:48;;;;;;;;;16.75;16.25;;;;;14.95;80.76;102063.31;4993173;28;9576;-67
2023/05/08 01:42:26;;;;;;;;;15.75;15.50;;;;;14.93;80.82;102059.13;4990359;28;9543;-67
2023/05/08 01:44:58;;;;;;;;;23.25;19.25;;;;;14.90;80.89;102056.78;4998476;28;9568;-67
2023/05/08 01:47:28;;;;;;;;;17.00;15.25;;;;;14.88;80.64;102073.25;5009150;28;9601;-68
2023/05/08 01:50:04;;;;;;;;;18.00;17.50;;;;;14.86;80.78;102069.88;4983471;28;9599;-67
2023/05/08 01:52:35;;;;;;;;;20.00;16.00;;;;;14.86;80.78;102069.03;5011772;28;9538;-68
2023/05/08 01:55:07;;;;;;;;;16.25;15.50;;;;;14.86;80.72;102055.50;4975082;28;9619;-67
2023/05/08 01:57:39;;;;;;;;;17.75;14.00;;;;;14.85;80.81;102062.78;4975113;28;9462;-67
2023/05/08 02:00:08;;;;;;;;;15.00;13.75;;;;;14.84;80.63;102061.97;4982145;28;9425;-68
2023/05/08 02:02:38;;;;;;;;;14.50;14.00;;;;;14.82;80.69;102064.00;4996205;28;9434;-69
2023/05/08 02:05:07;;;;;;;;;18.00;16.00;;;;;14.83;80.76;102070.28;4995357;28;9444;-68
2023/05/08 02:07:37;;;;;;;;;22.50;17.75;;;;;14.80;80.70;102073.38;4978262;28;9544;-68
2023/05/08 02:10:05;;;;;;;;;20.50;18.00;;;;;14.78;80.74;102078.13;4985533;28;9861;-68
2023/05/08 02:12:32;;;;;;;;;18.00;16.25;;;;;14.76;80.92;102074.78;4992017;28;9607;-67
2023/05/08 02:15:00;;;;;;;;;22.50;16.75;;;;;14.75;81.33;102076.66;5000392;28;9505;-67
2023/05/08 02:17:29;;;;;;;;;17.75;15.50;;;;;14.73;81.00;102078.72;5004334;28;9532;-69
2023/05/08 02:19:58;;;;;;;;;19.00;16.75;;;;;14.70;81.05;102076.38;4999331;28;9564;-67
2023/05/08 02:22:26;;;;;;;;;17.50;17.50;;;;;14.70;80.74;102075.53;4978472;28;9534;-68
2023/05/08 02:24:55;;;;;;;;;16.75;12.75;;;;;14.67;80.69;102071.38;4995869;28;9485;-69
2023/05/08 02:27:25;;;;;;;;;21.00;16.75;;;;;14.67;80.94;102073.25;4998860;28;9550;-68
2023/05/08 02:29:53;;;;;;;;;20.00;18.75;;;;;14.65;80.72;102076.13;4999309;28;9517;-68
2023/05/08 02:32:23;;;;;;;;;26.25;17.75;;;;;14.63;80.83;102077.38;5009954;28;10228;-69
2023/05/08 02:34:52;;;;;;;;;20.00;19.25;;;;;14.61;80.56;102077.53;4998121;28;9524;-67
2023/05/08 02:37:29;;;;;;;;;15.25;14.00;;;;;14.59;80.72;102077.75;5003371;28;9524;-67
2023/05/08 02:39:57;;;;;;;;;13.50;10.25;;;;;14.58;80.62;102076.06;5003116;28;10280;-67
2023/05/08 02:42:24;;;;;;;;;19.50;17.00;;;;;14.56;80.45;102079.97;4998988;28;9391;-68
2023/05/08 02:44:50;;;;;;;;;16.50;16.50;;;;;14.55;80.52;102072.91;4998879;28;9401;-68
2023/05/08 02:47:26;;;;;;;;;23.50;18.00;;;;;14.55;80.75;102075.59;4999037;28;9611;-67
2023/05/08 02:50:02;;;;;;;;;15.75;13.75;;;;;14.53;80.42;102074.94;4999610;28;9517;-67
2023/05/08 02:52:34;;;;;;;;;12.75;12.75;;;;;14.52;80.67;102073.25;4984908;28;9629;-67
2023/05/08 02:55:13;;;;;;;;;17.00;15.75;;;;;14.51;80.62;102061.59;5005932;28;9603;-66
2023/05/08 02:57:49;;;;;;;;;20.25;19.25;;;;;14.49;80.40;102057.38;4995607;28;9591;-68
2023/05/08 03:00:19;;;;;;;;;16.75;14.25;;;;;14.45;80.22;102062.31;4993932;28;10559;-69
2023/05/08 03:02:53;;;;;;;;;24.25;16.50;;;;;14.43;80.55;102063.53;4996657;28;9526;-67
2023/05/08 03:05:29;;;;;;;;;17.25;16.50;;;;;14.40;80.74;102059.34;5000491;28;9722;-66
2023/05/08 03:08:06;;;;;;;;;14.75;14.25;;;;;14.41;80.50;102054.75;4974860;28;9693;-69
2023/05/08 03:10:35;;;;;;;;;14.75;13.00;;;;;14.38;80.66;102055.13;5003259;28;9678;-67
2023/05/08 03:13:04;;;;;;;;;18.25;18.00;;;;;14.34;80.38;102057.38;4987811;28;10296;-66
2023/05/08 03:15:36;;;;;;;;;17.50;14.00;;;;;14.32;80.56;102056.72;4987131;28;9742;-67
2023/05/08 03:18:09;;;;;;;;;22.25;16.25;;;;;14.30;80.63;102056.06;4991503;28;9714;-68
2023/05/08 03:20:41;;;;;;;;;15.50;15.50;;;;;14.28;80.70;102050.84;4987118;28;9660;-67
2023/05/08 03:23:12;;;;;;;;;16.00;15.75;;;;;14.26;80.37;102044.78;4975818;28;10269;-67
2023/05/08 03:25:42;;;;;;;;;15.75;15.00;;;;;14.25;80.41;102053.09;4990365;28;9613;-66
2023/05/08 03:28:12;;;;;;;;;14.25;14.00;;;;;14.24;80.57;102048.72;4987730;28;9717;-66
2023/05/08 03:30:41;;;;;;;;;19.25;13.50;;;;;14.22;80.28;102046.22;5004349;28;9544;-68
2023/05/08 03:33:11;;;;;;;;;15.50;15.50;;;;;14.20;80.54;102047.41;4976156;28;9638;-67
2023/05/08 03:35:38;;;;;;;;;14.75;14.75;;;;;14.17;80.57;102048.63;4985378;28;9616;-67
2023/05/08 03:38:07;;;;;;;;;16.75;15.50;;;;;14.16;80.56;102049.66;4974473;28;9752;-66
2023/05/08 03:40:37;;;;;;;;;17.00;15.00;;;;;14.16;80.59;102052.38;4985154;28;9553;-68
2023/05/08 03:43:06;;;;;;;;;17.75;16.50;;;;;14.16;80.67;102046.94;4984686;28;9761;-66
2023/05/08 03:45:38;;;;;;;;;19.50;16.25;;;;;14.14;80.25;102048.16;5003623;28;9614;-66
2023/05/08 03:48:06;;;;;;;;;18.25;17.25;;;;;14.12;80.31;102051.06;4993989;28;9778;-66
2023/05/08 03:50:35;;;;;;;;;20.50;14.25;;;;;14.13;80.43;102047.31;4993951;28;9715;-67
2023/05/08 03:53:04;;;;;;;;;16.25;15.00;;;;;14.12;80.60;102045.63;4971229;28;9587;-67
2023/05/08 03:55:32;;;;;;;;;17.25;15.75;;;;;14.13;80.64;102049.19;4979160;28;9680;-67
2023/05/08 03:58:18;;;;;;;;;15.25;12.25;;;;;14.10;80.32;102047.72;4983062;28;9740;-67
2023/05/08 04:00:58;;;;;;;;;17.50;14.75;;;;;14.10;80.79;102055.84;4978237;28;10339;-69
2023/05/08 04:03:29;;;;;;;;;17.00;16.50;;;;;14.09;80.86;102052.25;4999817;28;9690;-68
2023/05/08 04:06:08;;;;;;;;;16.75;15.50;;;;;14.09;80.45;102051.44;5016252;23;10479;-67
2023/05/08 04:08:47;;;;;;;;;18.25;18.25;;;;;14.08;80.39;102055.16;5010286;28;9657;-68
2023/05/08 04:11:29;;;;;;;;;17.25;16.50;;;;;14.06;80.65;102051.81;5018185;28;9757;-66
2023/05/08 04:14:07;;;;;;;;;16.75;14.25;;;;;14.08;80.47;102049.75;4996560;28;9678;-66
2023/05/08 04:16:38;;;;;;;;;15.00;15.00;;;;;14.07;80.62;102058.91;5010412;28;9833;-65
2023/05/08 04:19:16;;;;;;;;;18.00;16.00;;;;;14.06;80.34;102058.06;4998974;28;9675;-66
2023/05/08 04:21:43;;;;;;;;;20.75;19.00;;;;;14.08;80.89;102060.59;4973232;28;9729;-66
2023/05/08 04:24:13;;;;;;;;;22.75;19.50;;;;;14.08;81.00;102055.16;4976288;28;9696;-66
2023/05/08 04:26:41;;;;;;;;;21.50;21.00;;;;;14.08;81.02;102061.41;4994962;28;9887;-65
2023/05/08 04:29:08;;;;;;;;;24.75;18.25;;;;;14.09;81.01;102062.25;5005031;28;9931;-66
2023/05/08 04:31:36;;;;;;;;;17.75;17.25;;;;;14.11;81.22;102062.94;5019536;28;10520;-65
2023/05/08 04:34:03;;;;;;;;;18.25;15.75;;;;;14.14;81.40;102058.97;5004215;28;9736;-65
2023/05/08 04:36:30;;;;;;;;;16.50;16.50;;;;;14.13;81.03;102071.69;4986847;28;9596;-66
2023/05/08 04:38:58;;;;;;;;;13.00;12.25;;;;;14.16;81.22;102074.03;4966554;28;9689;-66
2023/05/08 04:41:25;;;;;;;;;15.75;13.00;;;;;14.19;81.13;102070.94;4973206;28;9698;-65
2023/05/08 04:43:53;;;;;;;;;19.00;17.00;;;;;14.21;81.43;102079.72;4983413;28;9635;-65
2023/05/08 04:46:19;;;;;;;;;22.25;18.75;;;;;14.22;81.58;102072.41;4987785;28;10392;-66
2023/05/08 04:48:46;;;;;;;;;17.75;16.50;;;;;14.24;81.35;102076.63;4990096;28;9756;-66
2023/05/08 04:51:12;;;;;;;;;17.00;15.50;;;;;14.24;81.69;102076.63;4972861;28;9714;-66
2023/05/08 04:53:39;;;;;;;;;17.25;17.25;;;;;14.26;81.54;102082.72;4971700;28;9596;-65
2023/05/08 04:56:06;;;;;;;;;24.25;19.00;;;;;14.26;81.52;102085.44;4982403;28;9702;-65
2023/05/08 04:58:33;;;;;;;;;17.25;17.00;;;;;14.29;81.44;102101.28;4988058;28;9782;-66
2023/05/08 05:01:03;;;;;;;;;18.00;17.25;;;;;14.30;81.53;102094.84;4973770;28;9757;-66
2023/05/08 05:03:31;;;;;;;;;20.50;20.50;;;;;14.29;81.59;102098.56;5002086;28;9638;-66
2023/05/08 05:06:00;;;;;;;;;24.00;21.50;;;;;14.27;81.86;102097.94;4997368;28;9753;-66
2023/05/08 05:08:27;;;;;;;;;16.00;13.25;;;;;14.27;81.76;102106.06;4971235;28;9805;-66
2023/05/08 05:10:54;;;;;;;;;18.25;17.00;;;;;14.29;82.37;102103.16;4971520;28;9578;-66
2023/05/08 05:13:21;;;;;;;;;17.25;17.00;;;;;14.31;82.24;102101.09;4989300;28;9615;-66
2023/05/08 05:15:50;;;;;;;;;14.50;13.00;;;;;14.32;82.33;102100.06;4989567;28;9700;-66
2023/05/08 05:18:17;;;;;;;;;13.50;11.50;;;;;14.35;82.43;102107.84;4953833;28;9552;-66
2023/05/08 05:20:43;;;;;;;;;15.50;14.50;;;;;14.34;82.06;102098.88;4981704;28;9483;-66
2023/05/08 05:23:11;;;;;;;;;16.75;16.00;;;;;14.40;82.40;102112.69;5000731;28;9593;-66
2023/05/08 05:25:37;;;;;;;;;17.50;16.00;;;;;14.41;82.29;102103.50;4972000;28;9617;-66
2023/05/08 05:28:04;;;;;;;;;15.00;13.75;;;;;14.44;82.85;102105.84;4972526;28;9613;-66
2023/05/08 05:30:31;;;;;;;;;17.00;14.50;;;;;14.47;82.74;102102.78;4998146;28;9532;-66
2023/05/08 05:32:57;;;;;;;;;18.75;16.75;;;;;14.51;82.91;102106.81;5001887;28;10902;-66
2023/05/08 05:35:24;;;;;;;;;18.25;14.25;;;;;14.55;82.72;102110.84;4983361;28;10283;-66
2023/05/08 05:37:51;;;;;;;;;18.75;18.75;;;;;14.58;83.11;102111.28;4974973;28;9592;-66
2023/05/08 05:40:19;;;;;;;;;17.00;15.50;;;;;14.62;82.66;102116.31;4994361;28;9369;-66
2023/05/08 05:42:49;;;;;;;;;17.00;16.33;;;;;14.63;82.68;102118.00;4972266;28;9699;-66
2023/05/08 05:45:17;;;;;;;;;17.25;15.00;;;;;14.61;83.09;102120.91;4971153;28;9484;-66
2023/05/08 05:47:52;;;;;;;;;21.00;17.00;;;;;14.60;82.88;102116.50;5000618;28;9533;-65
2023/05/08 05:50:21;;;;;;;;;18.00;18.00;;;;;14.61;83.04;102120.06;4999730;28;9611;-66
2023/05/08 05:52:49;;;;;;;;;19.00;17.00;;;;;14.63;83.23;102124.28;4991770;28;9475;-66
2023/05/08 05:55:16;;;;;;;;;17.50;16.50;;;;;14.64;83.53;102119.69;4998095;28;9633;-65
2023/05/08 05:57:45;;;;;;;;;15.50;14.75;;;;;14.63;83.01;102118.84;4996365;28;9602;-65
2023/05/08 06:00:11;;;;;;;;;21.25;17.75;;;;;14.56;83.15;102118.75;4975849;28;9604;-65
2023/05/08 06:02:44;;;;;;;;;18.75;17.50;;;;;14.58;83.89;102121.25;4991840;28;9653;-66
2023/05/08 06:05:14;;;;;;;;;16.00;13.67;;;;;14.63;84.35;102131.56;4974837;28;9609;-65
2023/05/08 06:07:40;;;;;;;;;18.50;15.50;;;;;14.67;84.16;102127.44;4989137;28;9381;-65
2023/05/08 06:10:07;;;;;;;;;21.75;19.25;;;;;14.73;84.17;102132.09;4982280;28;9428;-66
2023/05/08 06:12:34;;;;;;;;;19.50;18.25;;;;;14.76;84.00;102132.56;4992793;28;9540;-66
2023/05/08 06:15:02;;;;;;;;;15.75;15.75;;;;;14.79;83.79;102132.19;4978233;28;9544;-66
2023/05/08 06:17:28;;;;;;;;;20.25;17.00;;;;;14.82;83.86;102133.66;4973954;28;9395;-66
2023/05/08 06:19:55;;;;;;;;;22.75;19.75;;;;;14.84;83.91;102139.72;4995443;28;9503;-66
2023/05/08 06:22:23;;;;;;;;;17.50;16.75;;;;;14.86;83.78;102137.66;5003804;28;9619;-66
2023/05/08 06:24:53;;;;;;;;;21.00;18.75;;;;;14.88;84.10;102130.19;4979364;28;9525;-66
2023/05/08 06:27:21;;;;;;;;;25.25;23.00;;;;;14.90;84.12;102132.69;4981086;28;9601;-67
2023/05/08 06:29:50;;;;;;;;;21.50;15.00;;;;;14.90;83.82;102140.84;4979623;28;9627;-66
2023/05/08 06:32:17;;;;;;;;;14.75;14.75;;;;;14.94;84.30;102136.72;4990681;28;9692;-67
2023/05/08 06:34:44;;;;;;;;;28.75;24.75;;;;;14.95;83.90;102136.53;4974756;28;9585;-66
2023/05/08 06:37:10;;;;;;;;;27.25;26.75;;;;;14.95;84.02;102141.97;4973051;28;9638;-66
2023/05/08 06:39:37;;;;;;;;;26.50;23.00;;;;;14.96;83.88;102140.91;4978287;28;10395;-66
2023/05/08 06:42:06;;;;;;;;;29.25;21.75;;;;;15.00;84.06;102141.38;4992140;28;9783;-66
2023/05/08 06:44:36;;;;;;;;;23.00;21.25;;;;;15.01;83.81;102138.47;4997059;28;9709;-66
2023/05/08 06:47:03;;;;;;;;;32.25;30.25;;;;;15.02;84.19;102133.88;4956204;28;9564;-67
2023/05/08 06:49:29;;;;;;;;;33.50;25.75;;;;;15.01;84.19;102134.91;4959745;28;9689;-67
2023/05/08 06:51:56;;;;;;;;;29.00;25.25;;;;;15.01;84.01;102138.47;4990785;28;9863;-66
2023/05/08 06:54:23;;;;;;;;;20.00;20.00;;;;;14.98;83.76;102129.88;4988436;28;9883;-67
2023/05/08 06:56:51;;;;;;;;;21.25;20.25;;;;;14.98;83.92;102138.00;4991354;28;9740;-67
2023/05/08 06:59:18;;;;;;;;;23.25;20.50;;;;;14.95;84.12;102127.53;4986759;28;9817;-67
2023/05/08 07:01:44;;;;;;;;;20.50;18.50;;;;;14.94;84.51;102132.13;4998945;28;10411;-67
2023/05/08 07:04:11;;;;;;;;;26.25;23.50;;;;;14.98;84.80;102133.41;5010535;28;10387;-67
2023/05/08 07:06:37;;;;;;;;;27.50;25.75;;;;;15.02;84.76;102128.44;5006386;28;10511;-66
2023/05/08 07:09:04;;;;;;;;;25.25;22.00;;;;;15.07;84.67;102129.56;4992397;28;9859;-67
2023/05/08 07:11:30;;;;;;;;;22.75;21.75;;;;;15.11;84.66;102127.31;4995045;28;9611;-66
2023/05/08 07:13:57;;;;;;;;;28.00;24.25;;;;;15.14;84.57;102136.94;5006921;28;9625;-67
2023/05/08 07:16:23;;;;;;;;;23.00;21.25;;;;;15.16;84.39;102135.72;4983234;28;9931;-67
2023/05/08 07:18:50;;;;;;;;;26.00;22.00;;;;;15.19;84.51;102134.47;4996472;28;9617;-67
2023/05/08 07:21:17;;;;;;;;;22.25;21.25;;;;;15.22;84.41;102134.91;5011820;28;9679;-66
2023/05/08 07:23:44;;;;;;;;;26.75;23.75;;;;;15.25;84.16;102133.72;5011386;28;9769;-66
2023/05/08 07:26:10;;;;;;;;;29.25;28.75;;;;;15.27;83.85;102137.91;5009824;28;9675;-67
2023/05/08 07:28:36;;;;;;;;;26.75;25.25;;;;;15.27;84.13;102132.50;5008503;28;10389;-66
2023/05/08 07:31:05;;;;;;;;;29.50;25.00;;;;;15.31;84.06;102132.91;4991972;28;9718;-67
2023/05/08 07:33:33;;;;;;;;;22.75;19.75;;;;;15.31;84.06;102124.78;4991580;28;9730;-66
2023/05/08 07:36:00;;;;;;;;;24.75;23.00;;;;;15.34;84.51;102127.94;4991321;28;9814;-66
2023/05/08 07:38:26;;;;;;;;;32.75;28.50;;;;;15.37;84.28;102125.88;4991175;28;9618;-66
2023/05/08 07:40:56;;;;;;;;;28.25;27.25;;;;;15.39;84.08;102124.66;4991700;28;9781;-66
2023/05/08 07:43:23;;;;;;;;;37.00;32.00;;;;;15.40;83.76;102129.06;4984995;28;9821;-66
2023/05/08 07:45:50;;;;;;;;;36.50;31.75;;;;;15.41;84.47;102127.19;4971402;28;9863;-67
2023/05/08 07:48:16;;;;;;;;;31.25;30.00;;;;;15.43;84.32;102125.09;4972125;28;9808;-67
2023/05/08 07:50:43;;;;;;;;;36.00;30.25;;;;;15.46;84.35;102130.16;4971894;28;9963;-66
2023/05/08 07:53:10;;;;;;;;;33.00;26.50;;;;;15.49;84.19;102132.47;4971869;28;10640;-66
2023/05/08 07:55:36;;;;;;;;;36.50;32.50;;;;;15.50;84.01;102131.44;4999415;28;9605;-67
2023/05/08 07:58:02;;;;;;;;;41.50;37.50;;;;;15.50;84.21;102128.72;4986020;28;9903;-66
2023/05/08 08:00:29;;;;;;;;;40.25;35.50;;;;;15.50;84.54;102124.13;4986487;28;9955;-66
2023/05/08 08:02:56;;;;;;;;;33.75;26.75;;;;;15.54;84.42;102124.56;4971754;28;9814;-66
2023/05/08 08:05:23;;;;;;;;;34.25;27.00;;;;;15.57;84.26;102122.31;4990579;28;9764;-67
2023/05/08 08:07:49;;;;;;;;;35.00;32.50;;;;;15.59;84.41;102120.22;4973209;28;10412;-66
2023/05/08 08:10:16;;;;;;;;;37.75;35.00;;;;;15.62;84.26;102116.28;4991176;28;9864;-67
2023/05/08 08:12:42;;;;;;;;;28.75;27.25;;;;;15.66;84.37;102112.19;4973562;28;10024;-67
2023/05/08 08:15:09;;;;;;;;;45.75;38.50;;;;;15.71;84.05;102119.72;4988112;28;9883;-66
2023/05/08 08:17:36;;;;;;;;;50.00;37.75;;;;;15.73;84.13;102120.38;5006269;28;11062;-67
2023/05/08 08:20:03;;;;;;;;;37.75;35.25;;;;;15.76;84.08;102118.13;4990966;28;10133;-67
2023/05/08 08:22:30;;;;;;;;;40.00;34.50;;;;;15.78;83.96;102118.75;4991156;28;9853;-67
2023/05/08 08:24:56;;;;;;;;;37.25;33.00;;;;;15.81;83.38;102121.06;4990462;28;9873;-66
2023/05/08 08:27:22;;;;;;;;;44.50;35.25;;;;;15.82;83.66;102120.03;4990273;28;10009;-67
2023/05/08 08:29:49;;;;;;;;;35.75;34.50;;;;;15.86;83.68;102115.03;4971558;28;10220;-67
2023/05/08 08:32:24;;;;;;;;;35.50;30.75;;;;;15.88;83.48;102123.84;4971198;28;10046;-66
2023/05/08 08:34:50;;;;;;;;;32.00;31.00;;;;;15.89;83.47;102114.66;4974687;28;9863;-65
2023/05/08 08:37:17;;;;;;;;;38.75;35.25;;;;;15.92;83.49;102124.25;4990873;28;9747;-66
2023/05/08 08:39:44;;;;;;;;;45.50;38.00;;;;;15.95;83.39;102129.31;5005719;28;9794;-66
2023/05/08 08:42:11;;;;;;;;;52.25;40.50;;;;;15.95;83.09;102134.75;4988973;28;10212;-67
2023/05/08 08:44:37;;;;;;;;;39.50;36.50;;;;;15.95;83.33;102132.03;4990233;28;10273;-67
2023/05/08 08:47:09;;;;;;;;;44.50;34.50;;;;;15.95;83.55;102127.44;4990317;28;10596;-67
2023/05/08 08:49:42;;;;;;;;;34.00;34.00;;;;;15.96;83.42;102130.97;4977483;28;9904;-67
2023/05/08 08:52:27;;;;;;;;;39.75;32.50;;;;;15.97;83.18;102127.25;4970279;28;9904;-66
2023/05/08 08:54:56;;;;;;;;;42.25;38.00;;;;;15.97;83.24;102127.25;4972019;28;9943;-67
2023/05/08 08:57:24;;;;;;;;;46.25;38.75;;;;;15.96;83.42;102129.13;5008696;28;10000;-66
2023/05/08 08:59:52;;;;;;;;;42.75;37.00;;;;;15.98;83.35;102123.50;5008503;28;10069;-66
2023/05/08 09:02:22;;;;;;;;;39.50;33.25;;;;;16.00;83.61;102127.69;5009015;28;10036;-67
2023/05/08 09:04:49;;;;;;;;;47.00;42.75;;;;;15.99;83.59;102126.00;5002724;28;10215;-67
2023/05/08 09:07:16;;;;;;;;;40.00;35.00;;;;;16.01;83.57;102123.94;4987995;28;10307;-67
2023/05/08 09:09:44;;;;;;;;;57.50;43.75;;;;;16.02;83.33;102120.16;4973073;28;10106;-67
2023/05/08 09:12:12;;;;;;;;;47.25;40.50;;;;;16.05;83.71;102124.38;4990229;28;10515;-66
2023/05/08 09:14:39;;;;;;;;;57.00;42.00;;;;;16.06;83.49;102128.75;4985537;28;10258;-66
2023/05/08 09:17:05;;;;;;;;;53.00;42.75;;;;;16.08;82.99;102126.66;4970902;28;10385;-68
2023/05/08 09:19:33;;;;;;;;;56.00;44.75;;;;;16.09;83.12;102128.38;4972491;28;11014;-67
2023/05/08 09:22:00;;;;;;;;;53.50;44.75;;;;;16.13;82.69;102131.53;4957404;28;10641;-67
2023/05/08 09:24:52;;;;;;;;;48.25;44.00;;;;;16.19;83.20;102141.59;4974402;28;10687;-66
2023/05/08 09:27:29;;;;;;;;;63.75;49.75;;;;;16.22;82.77;102128.44;4974578;28;10301;-66
2023/05/08 09:30:03;;;;;;;;;66.50;51.00;;;;;16.25;82.55;102140.81;4987537;28;10798;-67
2023/05/08 09:32:31;;;;;;;;;72.00;54.50;;;;;16.24;82.67;102137.22;4991753;28;11788;-67
2023/05/08 09:34:58;;;;;;;;;67.00;53.25;;;;;16.27;82.43;102134.09;4991156;28;11157;-67
2023/05/08 09:37:26;;;;;;;;;71.25;53.75;;;;;16.30;82.26;102139.16;4979655;28;11252;-67
2023/05/08 09:39:53;;;;;;;;;73.25;55.50;;;;;16.32;82.23;102136.22;4989360;28;11066;-67
2023/05/08 09:42:20;;;;;;;;;72.00;54.25;;;;;16.29;81.63;102132.03;4975259;28;11051;-66
2023/05/08 09:44:51;;;;;;;;;60.75;47.50;;;;;16.34;82.08;102133.31;4974316;28;11691;-67
2023/05/08 09:47:20;;;;;;;;;72.25;52.75;;;;;16.34;82.22;102133.31;4991977;28;10730;-67
2023/05/08 09:50:06;;;;;;;;;54.00;44.75;;;;;16.41;82.10;102128.75;4993787;28;10692;-67
2023/05/08 09:52:34;;;;;;;;;67.75;48.50;;;;;16.44;81.82;102128.34;4988896;28;10470;-67
2023/05/08 09:55:07;;;;;;;;;55.00;43.25;;;;;16.45;81.84;102135.47;4995016;28;10568;-67
2023/05/08 09:57:39;;;;;;;;;59.50;48.50;;;;;16.47;81.58;102136.09;4996044;28;10252;-67
2023/05/08 10:00:13;;;;;;;;;63.00;48.00;;;;;16.49;81.75;102134.03;5011980;28;10334;-67
2023/05/08 10:02:41;;;;;;;;;61.00;48.75;;;;;16.48;81.28;102133.16;5011984;28;10784;-66
2023/05/08 10:05:30;;;;;;;;;64.25;48.25;;;;;16.50;81.53;102133.81;5008112;23;10797;-69
2023/05/08 10:07:58;;;;;;;;;60.75;47.75;;;;;16.55;81.42;102135.94;4993594;28;10585;-69
2023/05/08 10:10:27;;;;;;;;;57.25;44.50;;;;;16.61;81.38;102135.13;4993971;28;10640;-69
2023/05/08 10:12:55;;;;;;;;;63.25;49.50;;;;;16.65;81.45;102136.41;4994064;28;10373;-69
2023/05/08 10:15:32;;;;;;;;;53.00;42.00;;;;;16.71;80.98;102138.28;4993831;28;10459;-69
2023/05/08 10:18:03;;;;;;;;;62.50;51.25;;;;;16.73;80.67;102138.13;4993364;28;10621;-69
2023/05/08 10:20:31;;;;;;;;;60.25;49.00;;;;;16.75;80.78;102136.88;4976121;28;10637;-69
2023/05/08 10:22:59;;;;;;;;;57.25;47.50;;;;;16.78;80.44;102133.75;4993553;28;11335;-69
2023/05/08 10:25:33;;;;;;;;;58.50;48.25;;;;;16.77;80.63;102134.81;4975689;28;10436;-68
2023/05/08 10:28:13;;;;;;;;;58.25;47.25;;;;;16.79;80.43;102140.03;4976196;28;10454;-69
2023/05/08 10:30:46;;;;;;;;;63.50;44.50;;;;;16.82;80.58;102134.19;4974820;28;11495;-69
2023/05/08 10:33:14;;;;;;;;;59.50;46.00;;;;;16.89;80.35;102136.91;4993272;28;10515;-68
2023/05/08 10:35:41;;;;;;;;;55.75;45.50;;;;;16.89;79.80;102140.47;4992879;28;10347;-69
2023/05/08 10:38:08;;;;;;;;;49.25;39.25;;;;;16.89;80.03;102137.75;4992036;28;11215;-69
2023/05/08 10:40:36;;;;;;;;;60.25;49.00;;;;;16.89;79.88;102134.19;4993054;28;10175;-69
2023/05/08 10:43:06;;;;;;;;;56.25;46.00;;;;;16.87;80.24;102136.28;4991938;28;10277;-69
2023/05/08 10:45:33;;;;;;;;;58.75;46.25;;;;;16.90;80.09;102130.47;4974614;28;10345;-70
2023/05/08 10:48:15;;;;;;;;;50.25;41.25;;;;;17.00;80.29;102122.72;4993370;28;10306;-69
2023/05/08 10:51:01;;;;;;;;;58.50;48.50;;;;;17.07;80.23;102131.75;4975604;28;10118;-70
2023/05/08 10:53:50;;;;;;;;;58.50;46.25;;;;;17.12;80.01;102121.06;4992986;28;10422;-70
2023/05/08 10:56:16;;;;;;;;;61.75;48.75;;;;;17.12;79.82;102123.81;5004461;28;10329;-70
2023/05/08 10:58:43;;;;;;;;;65.00;51.50;;;;;17.07;79.16;102126.31;5001989;28;10641;-69
2023/05/08 11:01:11;;;;;;;;;58.00;46.50;;;;;17.09;79.20;102132.38;4975444;28;10486;-70
2023/05/08 11:03:49;;;;;;;;;59.25;46.75;;;;;17.09;78.96;102131.53;4992767;28;10401;-69
2023/05/08 11:06:17;;;;;;;;;55.00;42.00;;;;;17.15;78.74;102128.84;4992142;28;10551;-70
2023/05/08 11:08:46;;;;;;;;;57.25;45.25;;;;;17.18;78.41;102131.16;4992483;28;10182;-71
2023/05/08 11:11:25;;;;;;;;;64.50;52.50;;;;;17.20;78.73;102129.03;4992563;28;10502;-71
2023/05/08 11:14:10;;;;;;;;;60.50;50.50;;;;;17.23;78.33;102134.09;4973701;28;10803;-70
2023/05/08 11:17:02;;;;;;;;;56.25;48.75;;;;;17.29;77.87;102129.69;4991743;28;11499;-71
2023/05/08 11:19:29;;;;;;;;;52.00;42.00;;;;;17.34;77.65;102120.88;4986164;28;10532;-70
2023/05/08 11:22:18;;;;;;;;;50.00;41.25;;;;;17.48;77.20;102109.81;4974543;28;10090;-69
2023/05/08 11:24:56;;;;;;;;;50.00;40.50;;;;;17.64;76.36;102114.00;4991512;28;10240;-70
2023/05/08 11:27:48;;;;;;;;;50.75;41.25;;;;;17.75;75.66;102107.13;4967170;28;9914;-70